createdAt,value
2022-10-18T00:01:13.091Z,12.20
2022-10-18T00:04:34.781Z,11.77
2022-10-18T00:08:01.154Z,11.38
2022-10-18T00:11:25.324Z,12.25
2022-10-18T00:14:50.561Z,16.45
2022-10-18T00:18:12.114Z,12.00
2022-10-18T00:21:33.657Z,12.15
2022-10-18T00:24:55.218Z,13.00
2022-10-18T00:28:16.733Z,12.55
2022-10-18T00:31:38.571Z,12.43
2022-10-18T00:35:00.067Z,11.07
2022-10-18T00:38:21.633Z,12.75
2022-10-18T00:41:43.757Z,11.45
2022-10-18T00:45:15.412Z,12.50
2022-10-18T00:48:36.947Z,11.75
2022-10-18T00:52:09.001Z,12.23
2022-10-18T00:55:32.605Z,12.45
2022-10-18T00:58:54.414Z,12.35
2022-10-18T01:02:18.330Z,12.30
2022-10-18T01:05:46.959Z,13.48
2022-10-18T01:13:08.490Z,12.35
2022-10-18T01:16:36.772Z,11.63
2022-10-18T01:20:04.104Z,11.85
2022-10-18T01:24:07.484Z,12.15
2022-10-18T01:27:43.011Z,11.48
2022-10-18T01:31:12.023Z,11.73
2022-10-18T01:34:40.045Z,12.07
2022-10-18T01:38:07.273Z,12.05
2022-10-18T01:41:29.725Z,12.30
2022-10-18T01:44:52.628Z,11.73
2022-10-18T01:48:16.682Z,12.73
2022-10-18T01:51:38.183Z,12.45
2022-10-18T01:55:00.715Z,11.77
2022-10-18T01:58:36.979Z,12.35
2022-10-18T02:02:28.176Z,12.27
2022-10-18T02:06:00.530Z,12.80
2022-10-18T02:09:43.688Z,11.57
2022-10-18T02:13:05.315Z,11.95
2022-10-18T02:16:34.767Z,12.50
2022-10-18T02:20:01.022Z,12.45
2022-10-18T02:23:24.844Z,12.45
2022-10-18T02:26:48.556Z,11.95
2022-10-18T02:30:10.720Z,12.55
2022-10-18T02:33:37.227Z,12.98
2022-10-18T02:37:00.860Z,12.60
2022-10-18T02:40:22.899Z,13.20
2022-10-18T02:43:46.717Z,12.40
2022-10-18T02:47:12.285Z,13.98
2022-10-18T02:50:36.060Z,12.60
2022-10-18T02:53:57.558Z,12.90
2022-10-18T02:57:24.152Z,12.73
2022-10-18T03:00:48.330Z,12.35
2022-10-18T03:04:10.523Z,12.45
2022-10-18T03:07:34.505Z,12.98
2022-10-18T03:11:01.041Z,12.25
2022-10-18T03:14:22.637Z,12.30
2022-10-18T03:17:46.643Z,13.02
2022-10-18T03:21:11.519Z,12.27
2022-10-18T03:24:33.096Z,12.65
2022-10-18T03:27:57.626Z,12.45
2022-10-18T03:31:21.839Z,13.50
2022-10-18T03:34:48.226Z,12.30
2022-10-18T03:38:09.788Z,13.05
2022-10-18T03:41:33.532Z,13.80
2022-10-18T03:44:55.139Z,14.20
2022-10-18T03:48:16.660Z,14.00
2022-10-18T03:51:38.170Z,13.55
2022-10-18T03:54:59.675Z,14.77
2022-10-18T03:58:27.018Z,15.23
2022-10-18T04:01:48.877Z,14.80
2022-10-18T04:05:10.809Z,14.70
2022-10-18T04:08:34.656Z,15.02
2022-10-18T04:11:56.193Z,13.48
2022-10-18T04:15:17.744Z,13.77
2022-10-18T04:18:39.288Z,14.23
2022-10-18T04:22:00.834Z,13.32
2022-10-18T04:25:22.492Z,13.65
2022-10-18T04:28:44.722Z,12.63
2022-10-18T04:32:06.430Z,12.82
2022-10-18T04:35:30.348Z,12.27
2022-10-18T04:38:51.902Z,12.50
2022-10-18T04:42:13.445Z,12.45
2022-10-18T04:45:35.073Z,14.85
2022-10-18T04:48:56.657Z,14.32
2022-10-18T04:52:20.524Z,12.77
2022-10-18T04:55:49.490Z,13.93
2022-10-18T04:59:16.305Z,14.40
2022-10-18T05:02:37.822Z,14.60
2022-10-18T05:06:02.699Z,13.70
2022-10-18T05:09:27.233Z,14.68
2022-10-18T05:12:51.131Z,13.20
2022-10-18T05:16:16.044Z,12.82
2022-10-18T05:19:39.952Z,14.18
2022-10-18T05:23:01.458Z,12.80
2022-10-18T05:26:25.060Z,13.07
2022-10-18T05:29:46.651Z,14.48
2022-10-18T05:33:08.904Z,14.02
2022-10-18T05:36:30.592Z,14.63
2022-10-18T05:39:55.185Z,14.25
2022-10-18T05:43:21.931Z,14.60
2022-10-18T05:46:50.516Z,15.07
2022-10-18T05:50:12.140Z,14.10
2022-10-18T05:53:37.848Z,14.57
2022-10-18T05:56:59.855Z,14.57
2022-10-18T06:00:23.735Z,14.63
2022-10-18T06:03:45.306Z,14.75
2022-10-18T06:07:11.449Z,13.93
2022-10-18T06:10:33.614Z,14.32
2022-10-18T06:13:55.198Z,14.43
2022-10-18T06:17:19.301Z,14.40
2022-10-18T06:20:40.893Z,13.90
2022-10-18T06:24:02.609Z,14.23
2022-10-18T06:27:26.466Z,14.25
2022-10-18T06:30:47.995Z,13.20
2022-10-18T06:34:12.237Z,12.60
2022-10-18T06:37:35.570Z,13.82
2022-10-18T06:41:00.808Z,13.75
2022-10-18T06:44:24.913Z,12.82
2022-10-18T06:47:46.434Z,12.82
2022-10-18T06:51:08.785Z,13.40
2022-10-18T06:54:30.326Z,13.68
2022-10-18T06:57:53.276Z,13.85
2022-10-18T07:01:17.135Z,13.55
2022-10-18T07:04:41.798Z,13.80
2022-10-18T07:08:05.973Z,13.38
2022-10-18T07:11:27.660Z,14.20
2022-10-18T07:14:49.228Z,14.25
2022-10-18T07:18:11.169Z,14.70
2022-10-18T07:21:35.060Z,15.07
2022-10-18T07:24:56.579Z,13.85
2022-10-18T07:28:20.654Z,13.27
2022-10-18T07:31:44.286Z,12.50
2022-10-18T07:35:08.550Z,13.55
2022-10-18T07:38:37.973Z,14.98
2022-10-18T07:41:59.489Z,12.63
2022-10-18T07:45:23.246Z,13.32
2022-10-18T07:48:44.776Z,12.43
2022-10-18T07:52:08.799Z,11.32
2022-10-18T07:55:32.664Z,13.93
2022-10-18T07:58:56.193Z,12.38
2022-10-18T08:02:17.915Z,14.45
2022-10-18T08:05:39.494Z,13.18
2022-10-18T08:09:03.901Z,10.73
2022-10-18T08:12:32.748Z,7.40
2022-10-18T08:16:03.699Z,7.70
2022-10-18T08:19:25.270Z,8.13
2022-10-18T08:22:50.266Z,8.07
2022-10-18T08:26:16.662Z,7.70
2022-10-18T08:29:38.218Z,7.70
2022-10-18T08:32:59.806Z,7.05
2022-10-18T08:36:26.228Z,7.15
2022-10-18T08:39:47.736Z,6.70
2022-10-18T08:43:27.952Z,6.80
2022-10-18T08:46:56.063Z,6.35
2022-10-18T08:50:23.839Z,6.80
2022-10-18T08:54:05.181Z,6.38
2022-10-18T08:57:26.746Z,6.85
2022-10-18T09:01:09.175Z,6.03
2022-10-18T09:04:59.952Z,6.72
2022-10-18T09:08:30.550Z,5.82
2022-10-18T09:12:01.866Z,5.85
2022-10-18T09:16:00.237Z,5.40
2022-10-18T09:19:45.282Z,5.07
2022-10-18T09:23:23.026Z,5.45
2022-10-18T09:26:49.583Z,5.35
2022-10-18T09:30:28.262Z,5.50
2022-10-18T09:34:03.730Z,5.53
2022-10-18T09:37:27.472Z,5.18
2022-10-18T09:40:58.374Z,5.85
2022-10-18T09:44:31.860Z,5.40
2022-10-18T09:48:08.553Z,6.85
2022-10-18T09:51:36.206Z,5.57
2022-10-18T09:55:03.338Z,5.25
2022-10-18T09:58:28.531Z,5.00
2022-10-18T10:01:50.035Z,5.80
2022-10-18T10:05:15.222Z,5.20
2022-10-18T10:08:36.864Z,5.43
2022-10-18T10:11:58.834Z,5.20
2022-10-18T10:15:29.540Z,5.22
2022-10-18T10:18:54.894Z,5.05
2022-10-18T10:22:37.254Z,4.90
2022-10-18T10:26:04.088Z,5.32
2022-10-18T10:29:55.974Z,4.57
2022-10-18T10:33:38.139Z,4.40
2022-10-18T10:36:59.696Z,4.63
2022-10-18T10:40:25.240Z,4.85
2022-10-18T10:43:50.863Z,4.20
2022-10-18T10:47:31.769Z,3.95
2022-10-18T10:51:10.990Z,4.30
2022-10-18T10:54:36.734Z,4.13
2022-10-18T10:57:58.829Z,4.70
2022-10-18T11:01:29.274Z,3.80
2022-10-18T11:04:55.094Z,4.47
2022-10-18T11:08:23.909Z,4.65
2022-10-18T11:11:56.877Z,4.07
2022-10-18T11:15:36.512Z,4.07
2022-10-18T11:19:00.422Z,4.88
2022-10-18T11:22:25.977Z,5.15
2022-10-18T11:26:08.671Z,5.03
2022-10-18T11:29:54.272Z,4.22
2022-10-18T11:33:33.599Z,5.13
2022-10-18T11:37:31.029Z,11.48
2022-10-18T11:41:30.519Z,4.65
2022-10-18T11:45:10.907Z,4.00
2022-10-18T11:48:41.599Z,4.22
2022-10-18T11:52:48.198Z,3.97
2022-10-18T11:56:18.700Z,4.15
2022-10-18T11:59:52.578Z,4.50
2022-10-18T12:03:38.283Z,4.18
2022-10-18T12:07:06.580Z,4.72
2022-10-18T12:10:45.787Z,5.70
2022-10-18T12:14:42.425Z,4.68
2022-10-18T12:18:14.772Z,4.30
2022-10-18T12:21:39.191Z,5.70
2022-10-18T12:25:02.040Z,5.07
2022-10-18T12:28:32.786Z,4.70
2022-10-18T12:32:01.782Z,3.83
2022-10-18T12:35:28.227Z,3.70
2022-10-18T12:38:58.128Z,3.95
2022-10-18T12:42:24.903Z,4.75
2022-10-18T12:46:00.813Z,4.17
2022-10-18T12:49:34.810Z,4.43
2022-10-18T12:53:07.075Z,4.45
2022-10-18T12:56:28.572Z,4.00
2022-10-18T12:59:50.295Z,4.18
2022-10-18T13:03:17.971Z,4.20
2022-10-18T13:06:58.152Z,4.35
2022-10-18T13:10:37.949Z,3.97
2022-10-18T13:14:15.392Z,4.03
2022-10-18T13:18:10.546Z,4.23
2022-10-18T13:21:53.141Z,4.03
2022-10-18T13:25:21.370Z,3.85
2022-10-18T13:28:49.064Z,3.28
2022-10-18T13:32:30.102Z,3.20
2022-10-18T13:35:56.271Z,3.40
2022-10-18T13:39:20.102Z,3.17
2022-10-18T13:42:43.917Z,2.83
2022-10-18T13:46:07.764Z,3.33
2022-10-18T13:49:35.148Z,3.47
2022-10-18T13:53:02.748Z,3.17
2022-10-18T13:56:31.079Z,3.15
2022-10-18T14:00:01.243Z,4.20
2022-10-18T14:03:56.916Z,3.30
2022-10-18T14:07:19.515Z,3.55
2022-10-18T14:11:01.838Z,3.38
2022-10-18T14:14:36.539Z,3.45
2022-10-18T14:18:12.230Z,3.20
2022-10-18T14:21:38.781Z,3.25
2022-10-18T14:25:18.101Z,2.83
2022-10-18T14:28:58.653Z,3.70
2022-10-18T14:32:30.667Z,3.42
2022-10-18T14:36:12.947Z,3.85
2022-10-18T14:39:38.579Z,3.33
2022-10-18T14:43:06.379Z,3.47
2022-10-18T14:46:34.527Z,3.70
2022-10-18T14:49:57.810Z,3.75
2022-10-18T14:53:25.207Z,3.25
2022-10-18T14:56:47.731Z,3.80
2022-10-18T15:00:21.699Z,3.60
2022-10-18T15:03:44.329Z,3.78
2022-10-18T15:07:15.464Z,4.22
2022-10-18T15:10:37.136Z,4.25
2022-10-18T15:14:03.197Z,3.72
2022-10-18T15:17:27.787Z,3.33
2022-10-18T15:21:17.343Z,3.30
2022-10-18T15:24:41.650Z,3.38
2022-10-18T15:28:03.368Z,3.55
2022-10-18T15:31:27.694Z,3.67
2022-10-18T15:34:49.397Z,4.82
2022-10-18T15:38:28.579Z,4.88
2022-10-18T15:42:07.428Z,5.40
2022-10-18T15:45:34.634Z,5.50
2022-10-18T15:49:20.686Z,4.70
2022-10-18T15:52:43.757Z,4.03
2022-10-18T15:56:38.135Z,36.88
2022-10-18T16:00:07.967Z,28.83
2022-10-18T16:03:37.456Z,6.45
2022-10-18T16:07:00.285Z,5.15
2022-10-18T16:10:21.789Z,4.75
2022-10-18T16:13:44.206Z,5.40
2022-10-18T16:17:07.136Z,5.28
2022-10-18T16:20:31.308Z,5.28
2022-10-18T16:23:53.212Z,6.55
2022-10-18T16:27:14.706Z,5.97
2022-10-18T16:30:36.473Z,5.75
2022-10-18T16:33:59.065Z,5.90
2022-10-18T16:37:20.629Z,6.82
2022-10-18T16:40:45.150Z,5.95
2022-10-18T16:44:09.364Z,6.57
2022-10-18T16:47:30.866Z,6.10
2022-10-18T16:50:56.762Z,6.55
2022-10-18T16:54:18.294Z,6.68
2022-10-18T16:57:40.006Z,6.85
2022-10-18T17:01:06.705Z,6.28
2022-10-18T17:04:30.469Z,7.45
2022-10-18T17:07:54.266Z,7.35
2022-10-18T17:11:16.922Z,8.48
2022-10-18T17:14:38.499Z,7.20
2022-10-18T17:18:03.940Z,7.70
2022-10-18T17:21:26.771Z,7.40
2022-10-18T17:24:48.514Z,8.00
2022-10-18T17:28:15.273Z,8.15
2022-10-18T17:31:36.839Z,8.25
2022-10-18T17:34:59.472Z,9.07
2022-10-18T17:38:21.041Z,9.27
2022-10-18T17:41:44.818Z,9.18
2022-10-18T17:45:07.056Z,10.25
2022-10-18T17:48:29.176Z,9.93
2022-10-18T17:51:50.711Z,10.02
2022-10-18T17:55:15.298Z,9.80
2022-10-18T17:58:37.044Z,9.60
2022-10-18T18:01:58.687Z,9.27
2022-10-18T18:05:20.195Z,9.45
2022-10-18T18:08:41.714Z,9.82
2022-10-18T18:12:05.810Z,9.80
2022-10-18T18:15:30.535Z,9.35
2022-10-18T18:18:54.388Z,9.30
2022-10-18T18:22:15.944Z,8.85
2022-10-18T18:25:37.468Z,8.63
2022-10-18T18:28:59.700Z,8.35
2022-10-18T18:32:23.584Z,7.97
2022-10-18T18:35:57.266Z,9.10
2022-10-18T18:39:23.228Z,8.88
2022-10-18T18:43:01.425Z,9.10
2022-10-18T18:46:34.309Z,10.35
2022-10-18T18:49:57.893Z,11.40
2022-10-18T18:53:19.782Z,10.88
2022-10-18T18:56:42.349Z,13.85
2022-10-18T19:00:04.616Z,11.98
2022-10-18T19:03:29.587Z,9.80
2022-10-18T19:06:51.214Z,10.27
2022-10-18T19:10:15.064Z,9.93
2022-10-18T19:13:38.955Z,9.70
2022-10-18T19:17:01.528Z,10.07
2022-10-18T19:20:23.458Z,8.98
2022-10-18T19:23:45.002Z,11.32
2022-10-18T19:27:14.241Z,9.70
2022-10-18T19:30:36.100Z,10.27
2022-10-18T19:34:00.192Z,10.27
2022-10-18T19:37:26.626Z,11.23
2022-10-18T19:40:53.726Z,15.27
2022-10-18T19:44:19.034Z,12.18
2022-10-18T19:47:42.947Z,11.45
2022-10-18T19:51:09.753Z,12.52
2022-10-18T19:54:32.040Z,12.47
2022-10-18T19:57:56.975Z,12.23
2022-10-18T20:01:19.366Z,12.07
2022-10-18T20:04:41.061Z,12.70
2022-10-18T20:08:03.737Z,11.98
2022-10-18T20:11:27.970Z,13.23
2022-10-18T20:14:51.627Z,14.23
2022-10-18T20:18:13.153Z,11.95
2022-10-18T20:21:36.191Z,12.30
2022-10-18T20:25:02.662Z,11.77
2022-10-18T20:28:25.161Z,12.20
2022-10-18T20:31:48.897Z,11.45
2022-10-18T20:35:10.477Z,11.65
2022-10-18T20:38:37.304Z,12.05
2022-10-18T20:41:59.047Z,12.85
2022-10-18T20:45:20.662Z,12.27
2022-10-18T20:48:42.203Z,11.98
2022-10-18T20:52:03.807Z,12.38
2022-10-18T20:55:27.584Z,11.73
2022-10-18T20:58:53.987Z,12.35
2022-10-18T21:02:15.691Z,12.85
2022-10-18T21:05:37.216Z,14.25
2022-10-18T21:08:59.773Z,13.80
2022-10-18T21:12:25.497Z,12.90
2022-10-18T21:15:59.089Z,13.05
2022-10-18T21:19:23.777Z,14.50
2022-10-18T21:22:47.877Z,13.23
2022-10-18T21:26:17.698Z,14.38
2022-10-18T21:29:39.276Z,13.23
2022-10-18T21:33:00.799Z,14.02
2022-10-18T21:36:23.610Z,14.40
2022-10-18T21:39:48.127Z,14.48
2022-10-18T21:43:09.826Z,15.05
2022-10-18T21:46:31.565Z,14.57
2022-10-18T21:49:53.152Z,14.32
2022-10-18T21:53:17.127Z,13.95
2022-10-18T21:56:39.011Z,14.45
2022-10-18T22:00:00.527Z,14.25
2022-10-18T22:03:23.365Z,13.85
2022-10-18T22:06:45.022Z,13.93
2022-10-18T22:10:07.044Z,13.88
2022-10-18T22:13:30.997Z,14.23
2022-10-18T22:16:52.656Z,13.43
2022-10-18T22:20:14.175Z,14.45
2022-10-18T22:23:41.738Z,14.32
2022-10-18T22:27:06.250Z,13.67
2022-10-18T22:30:27.848Z,14.52
2022-10-18T22:34:00.142Z,14.43
2022-10-18T22:37:21.710Z,14.85
2022-10-18T22:40:43.225Z,14.35
2022-10-18T22:44:04.982Z,14.40
2022-10-18T22:47:26.504Z,14.75
2022-10-18T22:50:50.257Z,15.20
2022-10-18T22:54:11.849Z,14.48
2022-10-18T22:57:35.538Z,15.30
2022-10-18T23:01:08.667Z,14.60
2022-10-18T23:04:30.194Z,14.82
2022-10-18T23:07:54.723Z,15.77
2022-10-18T23:11:16.529Z,15.30
2022-10-18T23:14:38.041Z,15.32
2022-10-18T23:18:01.652Z,14.20
2022-10-18T23:21:24.740Z,16.00
2022-10-18T23:24:49.270Z,15.10
2022-10-18T23:28:10.771Z,14.68
2022-10-18T23:31:33.278Z,15.00
2022-10-18T23:34:54.805Z,15.73
2022-10-18T23:38:16.427Z,14.85
2022-10-18T23:41:37.960Z,15.55
2022-10-18T23:44:59.594Z,15.82
2022-10-18T23:48:21.093Z,15.05
2022-10-18T23:51:42.609Z,14.90
2022-10-18T23:55:04.468Z,14.40
2022-10-18T23:58:27.687Z,14.77
